Time;durP1;ratioP1;P1;durP2;ratioP2;P2;SDS_P1;SDS_P2;PMS_P1;PMS_P2;Temp;Humidity;BMP_temperature;BMP_pressure;BME280_temperature;BME280_humidity;BME280_pressure;Samples;Min_cycle;Max_cycle;Signal;HPM_P1;HPM_P2
2022/06/08 00:01:09;;;;;;;;;;;;;;;;;;5013018;28;19921;-67
2022/06/08 00:03:36;;;;;;;;;;;;;;;;;;5012838;28;19925;-67
2022/06/08 00:06:02;;;;;;;;;;;;;;;;;;5013144;28;19963;-67
2022/06/08 00:08:28;;;;;;;;;;;;;;;;;;5012975;28;19925;-67
2022/06/08 00:10:54;;;;;;;;;;;;;;;;;;5012279;28;20418;-67
2022/06/08 00:13:20;;;;;;;;;;;;;;;;;;5013406;28;19976;-67
2022/06/08 00:15:47;;;;;;;;;;;;;;;;;;5013248;28;20012;-67
2022/06/08 00:18:13;;;;;;;;;;;;;;;;;;5012666;28;19921;-67
2022/06/08 00:20:38;;;;;;;;;;;;;;;;;;5011361;28;19976;-66
2022/06/08 00:23:04;;;;;;;;;;;;;;;;;;5012989;28;19992;-66
2022/06/08 00:25:31;;;;;;;;;;;;;;;;;;5016365;28;19971;-66
2022/06/08 00:27:57;;;;;;;;;;;;;;;;;;5032077;28;19921;-66
2022/06/08 00:30:23;;;;;;;;;;;;;;;;;;5032620;28;20404;-66
2022/06/08 00:32:49;;;;;;;;;;;;;;;;;;5032355;28;19971;-66
2022/06/08 00:35:15;;;;;;;;;;;;;;;;;;5032167;28;19921;-66
2022/06/08 00:37:41;;;;;;;;;;;;;;;;;;5032798;28;19932;-66
2022/06/08 00:40:07;;;;;;;;;;;;;;;;;;5032255;28;19948;-66
2022/06/08 00:42:33;;;;;;;;;;;;;;;;;;5032128;28;19925;-66
2022/06/08 00:44:59;;;;;;;;;;;;;;;;;;5032807;28;19925;-66
2022/06/08 00:47:26;;;;;;;;;;;;;;;;;;5032857;28;20279;-66
2022/06/08 00:49:53;;;;;;;;;;;;;;;;;;5032235;28;19932;-66
2022/06/08 00:52:19;;;;;;;;;;;;;;;;;;5032699;28;19971;-66
2022/06/08 00:54:45;;;;;;;;;;;;;;;;;;5034891;28;20008;-66
2022/06/08 00:57:11;;;;;;;;;;;;;;;;;;5035705;28;19932;-66
2022/06/08 00:59:37;;;;;;;;;;;;;;;;;;5035854;28;19944;-66
2022/06/08 01:02:03;;;;;;;;;;;;;;;;;;5035942;28;19947;-66
2022/06/08 01:04:29;;;;;;;;;;;;;;;;;;5035320;28;19925;-66
2022/06/08 01:06:55;;;;;;;;;;;;;;;;;;5035701;28;19921;-66
2022/06/08 01:09:21;;;;;;;;;;;;;;;;;;5035645;28;19960;-66
2022/06/08 01:11:47;;;;;;;;;;;;;;;;;;5035099;28;19928;-66
2022/06/08 01:14:13;;;;;;;;;;;;;;;;;;5035525;28;19925;-66
2022/06/08 01:16:39;;;;;;;;;;;;;;;;;;5036099;28;19964;-66
2022/06/08 01:19:05;;;;;;;;;;;;;;;;;;5034833;28;19948;-66
2022/06/08 01:21:31;;;;;;;;;;;;;;;;;;5035185;28;19925;-66
2022/06/08 01:23:57;;;;;;;;;;;;;;;;;;5035856;28;19975;-67
2022/06/08 01:26:23;;;;;;;;;;;;;;;;;;5024576;28;19928;-67
2022/06/08 01:28:49;;;;;;;;;;;;;;;;;;5015900;28;20492;-67
2022/06/08 01:31:15;;;;;;;;;;;;;;;;;;5015374;28;19921;-67
2022/06/08 01:33:41;;;;;;;;;;;;;;;;;;5014988;28;20296;-67
2022/06/08 01:36:08;;;;;;;;;;;;;;;;;;5015641;28;19921;-67
2022/06/08 01:38:34;;;;;;;;;;;;;;;;;;5015190;28;19930;-67
2022/06/08 01:41:00;;;;;;;;;;;;;;;;;;5014699;28;19932;-67
2022/06/08 01:43:27;;;;;;;;;;;;;;;;;;5013739;28;19961;-67
2022/06/08 01:45:53;;;;;;;;;;;;;;;;;;5015429;28;19959;-67
2022/06/08 01:48:19;;;;;;;;;;;;;;;;;;5014732;28;19921;-67
2022/06/08 01:50:45;;;;;;;;;;;;;;;;;;5015106;28;19980;-67
2022/06/08 01:53:11;;;;;;;;;;;;;;;;;;5015365;28;20009;-67
2022/06/08 01:55:37;;;;;;;;;;;;;;;;;;5014538;28;19921;-67
2022/06/08 01:58:03;;;;;;;;;;;;;;;;;;5014868;28;19972;-67
2022/06/08 02:00:29;;;;;;;;;;;;;;;;;;5015034;28;19922;-67
2022/06/08 02:02:55;;;;;;;;;;;;;;;;;;5012662;28;19983;-67
2022/06/08 02:05:21;;;;;;;;;;;;;;;;;;5014709;28;19921;-67
2022/06/08 02:07:47;;;;;;;;;;;;;;;;;;5014970;28;19995;-67
2022/06/08 02:10:14;;;;;;;;;;;;;;;;;;5014577;28;19921;-67
2022/06/08 02:12:40;;;;;;;;;;;;;;;;;;5014888;28;19922;-67
2022/06/08 02:15:06;;;;;;;;;;;;;;;;;;5014754;28;20019;-67
2022/06/08 02:17:32;;;;;;;;;;;;;;;;;;5014368;28;20408;-67
2022/06/08 02:19:58;;;;;;;;;;;;;;;;;;5014619;28;19922;-67
2022/06/08 02:22:24;;;;;;;;;;;;;;;;;;5014787;28;19929;-67
2022/06/08 02:24:51;;;;;;;;;;;;;;;;;;5013852;28;19922;-67
2022/06/08 02:27:17;;;;;;;;;;;;;;;;;;5014776;28;19925;-67
2022/06/08 02:29:43;;;;;;;;;;;;;;;;;;5014403;28;20064;-67
2022/06/08 02:34:27;;;;;;;;;;;;;;;;;;5014158;28;20005;-67
2022/06/08 02:34:55;;;;;;;;;;;;;;;;;;5014368;28;19925;-67
2022/06/08 02:37:21;;;;;;;;;;;;;;;;;;5014133;28;19928;-67
2022/06/08 02:39:47;;;;;;;;;;;;;;;;;;5013532;28;19971;-67
2022/06/08 02:42:13;;;;;;;;;;;;;;;;;;5013855;28;19926;-67
2022/06/08 02:44:39;;;;;;;;;;;;;;;;;;5014538;28;19921;-67
2022/06/08 02:47:05;;;;;;;;;;;;;;;;;;5012479;28;20012;-67
2022/06/08 02:49:32;;;;;;;;;;;;;;;;;;5014249;28;19994;-67
2022/06/08 02:51:58;;;;;;;;;;;;;;;;;;5014385;28;20008;-67
2022/06/08 02:54:24;;;;;;;;;;;;;;;;;;5013539;28;20016;-67
2022/06/08 02:56:50;;;;;;;;;;;;;;;;;;5013924;28;19922;-67
2022/06/08 02:59:16;;;;;;;;;;;;;;;;;;5013747;28;19971;-67
2022/06/08 03:01:42;;;;;;;;;;;;;;;;;;5013899;28;19926;-67
2022/06/08 03:04:09;;;;;;;;;;;;;;;;;;5012819;28;20384;-67
2022/06/08 03:06:35;;;;;;;;;;;;;;;;;;5013795;28;19925;-67
2022/06/08 03:09:01;;;;;;;;;;;;;;;;;;5013592;28;19922;-67
2022/06/08 03:11:28;;;;;;;;;;;;;;;;;;5013968;28;19971;-67
2022/06/08 03:13:54;;;;;;;;;;;;;;;;;;5014060;28;19921;-67
2022/06/08 03:16:20;;;;;;;;;;;;;;;;;;5011505;28;19929;-67
2022/06/08 03:18:46;;;;;;;;;;;;;;;;;;5013937;28;20004;-67
2022/06/08 03:21:12;;;;;;;;;;;;;;;;;;5013727;28;19925;-67
2022/06/08 03:23:38;;;;;;;;;;;;;;;;;;5013437;28;19921;-67
2022/06/08 03:26:04;;;;;;;;;;;;;;;;;;5013847;28;20323;-67
2022/06/08 03:28:31;;;;;;;;;;;;;;;;;;5013504;28;19921;-67
2022/06/08 03:30:57;;;;;;;;;;;;;;;;;;5012701;28;20376;-67
2022/06/08 03:33:23;;;;;;;;;;;;;;;;;;5013924;28;19928;-67
2022/06/08 03:35:50;;;;;;;;;;;;;;;;;;5013532;28;19922;-67
2022/06/08 03:38:17;;;;;;;;;;;;;;;;;;5013003;28;19925;-67
2022/06/08 03:40:43;;;;;;;;;;;;;;;;;;5013104;28;20016;-67
2022/06/08 03:43:10;;;;;;;;;;;;;;;;;;5013306;28;19925;-67
2022/06/08 03:45:36;;;;;;;;;;;;;;;;;;5012858;28;20384;-67
2022/06/08 03:48:03;;;;;;;;;;;;;;;;;;5013464;28;19932;-67
2022/06/08 03:50:29;;;;;;;;;;;;;;;;;;5013334;28;19948;-67
2022/06/08 03:52:55;;;;;;;;;;;;;;;;;;5012831;28;20012;-67
2022/06/08 03:55:21;;;;;;;;;;;;;;;;;;5013222;28;19925;-67
2022/06/08 03:57:47;;;;;;;;;;;;;;;;;;5013487;28;19929;-67
2022/06/08 04:00:13;;;;;;;;;;;;;;;;;;5012818;28;20292;-67
2022/06/08 04:02:38;;;;;;;;;;;;;;;;;;5011644;28;19936;-67
2022/06/08 04:05:04;;;;;;;;;;;;;;;;;;5013340;28;19926;-67
2022/06/08 04:07:30;;;;;;;;;;;;;;;;;;5013541;28;19925;-67
2022/06/08 04:09:56;;;;;;;;;;;;;;;;;;5012561;28;19976;-67
2022/06/08 04:12:23;;;;;;;;;;;;;;;;;;5013132;28;19926;-67
2022/06/08 04:14:50;;;;;;;;;;;;;;;;;;5013731;28;19976;-67
2022/06/08 04:17:16;;;;;;;;;;;;;;;;;;5012531;28;19922;-67
2022/06/08 04:19:43;;;;;;;;;;;;;;;;;;5012981;28;19925;-67
2022/06/08 04:22:10;;;;;;;;;;;;;;;;;;5013465;28;19925;-67
2022/06/08 04:24:36;;;;;;;;;;;;;;;;;;5012779;28;19960;-67
2022/06/08 04:27:02;;;;;;;;;;;;;;;;;;5028732;28;19929;-68
2022/06/08 04:29:28;;;;;;;;;;;;;;;;;;5033479;28;19970;-68
2022/06/08 04:31:54;;;;;;;;;;;;;;;;;;5068059;28;19953;-67
2022/06/08 04:34:20;;;;;;;;;;;;;;;;;;5026244;28;19929;-67
2022/06/08 04:36:47;;;;;;;;;;;;;;;;;;5017184;28;20268;-67
2022/06/08 04:39:14;;;;;;;;;;;;;;;;;;5016302;28;19925;-67
2022/06/08 04:41:40;;;;;;;;;;;;;;;;;;5015251;28;20016;-67
2022/06/08 04:44:06;;;;;;;;;;;;;;;;;;5016934;28;20013;-67
2022/06/08 04:46:32;;;;;;;;;;;;;;;;;;5016860;28;19926;-67
2022/06/08 04:48:58;;;;;;;;;;;;;;;;;;5017010;28;20380;-67
2022/06/08 04:51:24;;;;;;;;;;;;;;;;;;5016847;28;20069;-67
2022/06/08 04:53:50;;;;;;;;;;;;;;;;;;5015976;28;19922;-67
2022/06/08 04:56:16;;;;;;;;;;;;;;;;;;5016528;28;19929;-67
2022/06/08 04:58:42;;;;;;;;;;;;;;;;;;5016450;28;19925;-67
2022/06/08 05:01:08;;;;;;;;;;;;;;;;;;5015949;28;19929;-67
2022/06/08 05:03:34;;;;;;;;;;;;;;;;;;5014883;28;19944;-67
2022/06/08 05:06:00;;;;;;;;;;;;;;;;;;5016286;28;19921;-67
2022/06/08 05:08:26;;;;;;;;;;;;;;;;;;5015299;28;19951;-67
2022/06/08 05:10:52;;;;;;;;;;;;;;;;;;5015765;28;19922;-67
2022/06/08 05:13:18;;;;;;;;;;;;;;;;;;5015169;28;20361;-67
2022/06/08 05:15:44;;;;;;;;;;;;;;;;;;5015119;28;19927;-67
2022/06/08 05:18:10;;;;;;;;;;;;;;;;;;5015918;28;19928;-67
2022/06/08 05:20:36;;;;;;;;;;;;;;;;;;5015356;28;19922;-67
2022/06/08 05:23:02;;;;;;;;;;;;;;;;;;5015158;28;19945;-67
2022/06/08 05:25:29;;;;;;;;;;;;;;;;;;5018398;28;19929;-67
2022/06/08 05:27:55;;;;;;;;;;;;;;;;;;5035406;28;20334;-67
2022/06/08 05:30:21;;;;;;;;;;;;;;;;;;5034356;28;19964;-67
2022/06/08 05:32:47;;;;;;;;;;;;;;;;;;5035405;28;19925;-67
2022/06/08 05:35:13;;;;;;;;;;;;;;;;;;5035353;28;19928;-67
2022/06/08 05:37:39;;;;;;;;;;;;;;;;;;5034685;28;19925;-67
2022/06/08 05:40:05;;;;;;;;;;;;;;;;;;5064110;28;19972;-68
2022/06/08 05:42:31;;;;;;;;;;;;;;;;;;5029895;28;19925;-68
2022/06/08 05:44:57;;;;;;;;;;;;;;;;;;5020106;28;20308;-67
2022/06/08 05:47:23;;;;;;;;;;;;;;;;;;5032011;28;20384;-66
2022/06/08 05:49:49;;;;;;;;;;;;;;;;;;5028932;28;19922;-67
2022/06/08 05:52:17;;;;;;;;;;;;;;;;;;5030483;28;19925;-67
2022/06/08 05:54:43;;;;;;;;;;;;;;;;;;5026352;28;19929;-68
2022/06/08 05:57:09;;;;;;;;;;;;;;;;;;5028437;28;20295;-68
2022/06/08 05:59:36;;;;;;;;;;;;;;;;;;5030523;28;20099;-68
2022/06/08 06:02:02;;;;;;;;;;;;;;;;;;5018787;28;19930;-67
2022/06/08 06:04:28;;;;;;;;;;;;;;;;;;5014144;28;20044;-67
2022/06/08 06:06:54;;;;;;;;;;;;;;;;;;5024946;28;19975;-67
2022/06/08 06:09:20;;;;;;;;;;;;;;;;;;5028250;28;19940;-67
2022/06/08 06:11:46;;;;;;;;;;;;;;;;;;5029094;28;19964;-67
2022/06/08 06:14:12;;;;;;;;;;;;;;;;;;5025613;28;19964;-67
2022/06/08 06:16:38;;;;;;;;;;;;;;;;;;5032934;28;20008;-66
2022/06/08 06:19:04;;;;;;;;;;;;;;;;;;5032393;28;19928;-66
2022/06/08 06:21:30;;;;;;;;;;;;;;;;;;5021815;28;20012;-68
2022/06/08 06:23:56;;;;;;;;;;;;;;;;;;5019838;28;19921;-66
2022/06/08 06:26:22;;;;;;;;;;;;;;;;;;5009207;28;19971;-68
2022/06/08 06:28:48;;;;;;;;;;;;;;;;;;5025823;28;19921;-68
2022/06/08 06:31:14;;;;;;;;;;;;;;;;;;5022294;28;19960;-68
2022/06/08 06:33:40;;;;;;;;;;;;;;;;;;5022805;28;19929;-66
2022/06/08 06:36:07;;;;;;;;;;;;;;;;;;5028042;28;19928;-68
2022/06/08 06:38:34;;;;;;;;;;;;;;;;;;5014099;28;19921;-67
2022/06/08 06:40:59;;;;;;;;;;;;;;;;;;5016447;28;19987;-67
2022/06/08 06:43:26;;;;;;;;;;;;;;;;;;5025231;28;19975;-69
2022/06/08 06:45:52;;;;;;;;;;;;;;;;;;5014850;28;19929;-69
2022/06/08 06:48:18;;;;;;;;;;;;;;;;;;5027803;28;19925;-69
2022/06/08 06:50:44;;;;;;;;;;;;;;;;;;5020359;28;20023;-68
2022/06/08 06:53:09;;;;;;;;;;;;;;;;;;5030321;28;20310;-67
2022/06/08 06:55:35;;;;;;;;;;;;;;;;;;5024213;28;19975;-66
2022/06/08 06:58:01;;;;;;;;;;;;;;;;;;5016476;28;19922;-66
2022/06/08 07:00:27;;;;;;;;;;;;;;;;;;5015413;28;19968;-65
2022/06/08 07:02:53;;;;;;;;;;;;;;;;;;5021947;28;19952;-64
2022/06/08 07:05:19;;;;;;;;;;;;;;;;;;5012889;28;19925;-66
2022/06/08 07:07:46;;;;;;;;;;;;;;;;;;5026909;28;19936;-67
2022/06/08 07:10:12;;;;;;;;;;;;;;;;;;5016792;28;19932;-65
2022/06/08 07:12:38;;;;;;;;;;;;;;;;;;5027225;28;19929;-66
2022/06/08 07:15:04;;;;;;;;;;;;;;;;;;5023150;28;19961;-65
2022/06/08 07:17:30;;;;;;;;;;;;;;;;;;5020716;28;19928;-65
2022/06/08 07:19:57;;;;;;;;;;;;;;;;;;5024422;28;19921;-67
2022/06/08 07:22:23;;;;;;;;;;;;;;;;;;5025233;28;19932;-66
2022/06/08 07:24:49;;;;;;;;;;;;;;;;;;5025088;28;19922;-67
2022/06/08 07:27:16;;;;;;;;;;;;;;;;;;5028948;28;19925;-67
2022/06/08 07:29:42;;;;;;;;;;;;;;;;;;5025171;28;19925;-66
2022/06/08 07:32:08;;;;;;;;;;;;;;;;;;5025601;28;19921;-68
2022/06/08 07:34:35;;;;;;;;;;;;;;;;;;5022391;28;19932;-68
2022/06/08 07:37:01;;;;;;;;;;;;;;;;;;5025807;28;19921;-67
2022/06/08 07:39:27;;;;;;;;;;;;;;;;;;5016452;28;19925;-67
2022/06/08 07:41:54;;;;;;;;;;;;;;;;;;5024836;28;20415;-67
2022/06/08 07:44:20;;;;;;;;;;;;;;;;;;5018170;28;19960;-66
2022/06/08 07:46:46;;;;;;;;;;;;;;;;;;5026201;28;19925;-68
2022/06/08 07:51:56;;;;;;;;;;;;;;;;;;5024566;28;20352;-67
2022/06/08 07:54:22;;;;;;;;;;;;;;;;;;5024562;28;20650;-67
2022/06/08 07:56:48;;;;;;;;;;;;;;;;;;5024095;28;20353;-67
2022/06/08 07:59:15;;;;;;;;;;;;;;;;;;5021597;28;20638;-68
2022/06/08 08:01:41;;;;;;;;;;;;;;;;;;5023507;28;19964;-68
2022/06/08 08:04:07;;;;;;;;;;;;;;;;;;5021140;28;19975;-66
2022/06/08 08:06:33;;;;;;;;;;;;;;;;;;5025013;28;20860;-66
2022/06/08 08:09:03;;;;;;;;;;;;;;;;;;5023023;28;19925;-68
2022/06/08 08:11:29;;;;;;;;;;;;;;;;;;5025272;28;20028;-65
2022/06/08 08:13:55;;;;;;;;;;;;;;;;;;5024745;28;20025;-67
2022/06/08 08:16:21;;;;;;;;;;;;;;;;;;5024434;28;19932;-66
2022/06/08 08:18:48;;;;;;;;;;;;;;;;;;5026597;28;19929;-66
2022/06/08 08:21:14;;;;;;;;;;;;;;;;;;5030148;28;19925;-67
2022/06/08 08:23:40;;;;;;;;;;;;;;;;;;5035012;28;20325;-68
2022/06/08 08:26:05;;;;;;;;;;;;;;;;;;5026950;28;19925;-66
2022/06/08 08:28:32;;;;;;;;;;;;;;;;;;5026973;28;19925;-66
2022/06/08 08:30:58;;;;;;;;;;;;;;;;;;5028046;28;19928;-67
2022/06/08 08:33:24;;;;;;;;;;;;;;;;;;5029885;28;20292;-67
2022/06/08 08:35:51;;;;;;;;;;;;;;;;;;5033188;28;19932;-67
2022/06/08 08:38:19;;;;;;;;;;;;;;;;;;5028310;28;19929;-66
2022/06/08 08:40:45;;;;;;;;;;;;;;;;;;5027633;28;19933;-67
2022/06/08 08:43:11;;;;;;;;;;;;;;;;;;5026042;28;19928;-70
2022/06/08 08:45:37;;;;;;;;;;;;;;;;;;5030316;28;19956;-68
2022/06/08 08:48:04;;;;;;;;;;;;;;;;;;5032131;28;19983;-67
2022/06/08 08:50:30;;;;;;;;;;;;;;;;;;5026616;28;19925;-67
2022/06/08 08:52:55;;;;;;;;;;;;;;;;;;5025316;28;19935;-66
2022/06/08 08:55:21;;;;;;;;;;;;;;;;;;5023075;28;20004;-67
2022/06/08 08:57:47;;;;;;;;;;;;;;;;;;5026976;28;19928;-68
2022/06/08 09:00:13;;;;;;;;;;;;;;;;;;5032087;28;19925;-66
2022/06/08 09:05:26;;;;;;;;;;;;;;;;;;5031787;28;20294;-67
2022/06/08 09:07:52;;;;;;;;;;;;;;;;;;5018748;28;19964;-67
2022/06/08 09:10:18;;;;;;;;;;;;;;;;;;5020387;28;19991;-68
2022/06/08 09:12:44;;;;;;;;;;;;;;;;;;5025514;28;19983;-67
2022/06/08 09:15:10;;;;;;;;;;;;;;;;;;5023279;28;20012;-66
2022/06/08 09:17:36;;;;;;;;;;;;;;;;;;5020828;28;20036;-69
2022/06/08 09:20:03;;;;;;;;;;;;;;;;;;5020354;28;19925;-66
2022/06/08 09:22:29;;;;;;;;;;;;;;;;;;5011798;28;19957;-67
2022/06/08 09:24:55;;;;;;;;;;;;;;;;;;5018926;28;19957;-66
2022/06/08 09:27:24;;;;;;;;;;;;;;;;;;5024910;28;20442;-65
2022/06/08 09:29:50;;;;;;;;;;;;;;;;;;5027544;28;19921;-65
2022/06/08 09:32:16;;;;;;;;;;;;;;;;;;5025112;28;20330;-66
2022/06/08 09:34:42;;;;;;;;;;;;;;;;;;5024669;28;19924;-67
2022/06/08 09:37:08;;;;;;;;;;;;;;;;;;5020953;28;19963;-66
2022/06/08 09:39:34;;;;;;;;;;;;;;;;;;5018648;28;20311;-67
2022/06/08 09:42:00;;;;;;;;;;;;;;;;;;5026337;28;19955;-68
2022/06/08 09:44:26;;;;;;;;;;;;;;;;;;5023267;28;19984;-67
2022/06/08 09:52:21;;;;;;;;;;;;;;;;;;5017436;28;20374;-68
2022/06/08 09:54:48;;;;;;;;;;;;;;;;;;5014422;28;20023;-68
2022/06/08 09:57:15;;;;;;;;;;;;;;;;;;5033062;28;19921;-69
2022/06/08 09:59:41;;;;;;;;;;;;;;;;;;5027511;28;19964;-64
2022/06/08 10:02:07;;;;;;;;;;;;;;;;;;5023491;28;19984;-69
2022/06/08 10:04:32;;;;;;;;;;;;;;;;;;5021315;28;19925;-69
2022/06/08 10:06:58;;;;;;;;;;;;;;;;;;5026087;28;19975;-66
2022/06/08 10:09:25;;;;;;;;;;;;;;;;;;5026482;28;19929;-67
2022/06/08 10:11:51;;;;;;;;;;;;;;;;;;5013792;28;20554;-66
2022/06/08 10:14:17;;;;;;;;;;;;;;;;;;5023495;28;19921;-66
2022/06/08 10:16:43;;;;;;;;;;;;;;;;;;5026148;28;19925;-66
2022/06/08 10:19:11;;;;;;;;;;;;;;;;;;5006437;28;19925;-66
2022/06/08 10:21:37;;;;;;;;;;;;;;;;;;5029695;28;19929;-66
2022/06/08 10:24:03;;;;;;;;;;;;;;;;;;5026282;28;20287;-65
2022/06/08 10:26:28;;;;;;;;;;;;;;;;;;5027908;28;19928;-66
2022/06/08 10:28:55;;;;;;;;;;;;;;;;;;5027055;28;19979;-67
2022/06/08 10:31:21;;;;;;;;;;;;;;;;;;5027364;28;19936;-67
2022/06/08 10:33:48;;;;;;;;;;;;;;;;;;5025296;28;20299;-66
2022/06/08 10:36:15;;;;;;;;;;;;;;;;;;5022585;28;19965;-66
2022/06/08 10:38:45;;;;;;;;;;;;;;;;;;5019789;28;19976;-66
2022/06/08 10:43:57;;;;;;;;;;;;;;;;;;5010729;28;20044;-66
2022/06/08 10:46:23;;;;;;;;;;;;;;;;;;5024188;28;19968;-66
2022/06/08 10:48:49;;;;;;;;;;;;;;;;;;5020945;28;19925;-66
2022/06/08 10:51:16;;;;;;;;;;;;;;;;;;5028637;28;19925;-66
2022/06/08 10:56:32;;;;;;;;;;;;;;;;;;5025397;28;20231;-66
2022/06/08 10:58:58;;;;;;;;;;;;;;;;;;5030000;28;19921;-66
2022/06/08 11:01:25;;;;;;;;;;;;;;;;;;5029399;28;19925;-66
2022/06/08 11:03:51;;;;;;;;;;;;;;;;;;5030694;28;19975;-66
2022/06/08 11:06:16;;;;;;;;;;;;;;;;;;5027379;28;19929;-66
2022/06/08 11:08:42;;;;;;;;;;;;;;;;;;5020411;28;19925;-65
2022/06/08 11:11:08;;;;;;;;;;;;;;;;;;5016148;28;19951;-66
2022/06/08 11:13:34;;;;;;;;;;;;;;;;;;5017073;28;19956;-65
2022/06/08 11:16:01;;;;;;;;;;;;;;;;;;5016979;28;19956;-64
2022/06/08 11:18:28;;;;;;;;;;;;;;;;;;5024318;28;19921;-64
2022/06/08 11:20:54;;;;;;;;;;;;;;;;;;5026043;28;20344;-68
2022/06/08 11:23:20;;;;;;;;;;;;;;;;;;5022783;28;19928;-66
2022/06/08 11:25:46;;;;;;;;;;;;;;;;;;5027904;28;19936;-64
2022/06/08 11:28:12;;;;;;;;;;;;;;;;;;5030556;28;20279;-65
2022/06/08 11:30:37;;;;;;;;;;;;;;;;;;5021942;28;19928;-65
2022/06/08 11:33:03;;;;;;;;;;;;;;;;;;5020171;28;19925;-65
2022/06/08 11:35:30;;;;;;;;;;;;;;;;;;5018946;28;19921;-65
2022/06/08 11:37:57;;;;;;;;;;;;;;;;;;5027226;28;19921;-64
2022/06/08 11:40:25;;;;;;;;;;;;;;;;;;5021459;28;20372;-65
2022/06/08 11:42:51;;;;;;;;;;;;;;;;;;5026961;28;19956;-67
2022/06/08 11:45:18;;;;;;;;;;;;;;;;;;5024955;28;20311;-66
2022/06/08 11:47:44;;;;;;;;;;;;;;;;;;5023613;28;19933;-65
2022/06/08 11:50:11;;;;;;;;;;;;;;;;;;5028317;28;19944;-66
2022/06/08 11:52:37;;;;;;;;;;;;;;;;;;5030850;28;19924;-65
2022/06/08 11:55:03;;;;;;;;;;;;;;;;;;5023176;28;20303;-65
2022/06/08 11:57:30;;;;;;;;;;;;;;;;;;5030371;28;19925;-67
2022/06/08 12:00:01;;;;;;;;;;;;;;;;;;5021088;28;20321;-66
2022/06/08 12:02:27;;;;;;;;;;;;;;;;;;5027668;28;20363;-67
2022/06/08 12:04:54;;;;;;;;;;;;;;;;;;5018393;28;19980;-66
2022/06/08 12:07:20;;;;;;;;;;;;;;;;;;5025726;28;20015;-65
2022/06/08 12:09:47;;;;;;;;;;;;;;;;;;5027968;28;20007;-67
2022/06/08 12:12:13;;;;;;;;;;;;;;;;;;5027539;28;19925;-66
2022/06/08 12:14:39;;;;;;;;;;;;;;;;;;5024823;28;19936;-65
2022/06/08 12:17:05;;;;;;;;;;;;;;;;;;5027595;28;19925;-66
2022/06/08 12:19:32;;;;;;;;;;;;;;;;;;5026391;28;19978;-65
2022/06/08 12:21:58;;;;;;;;;;;;;;;;;;5024975;28;20342;-64
2022/06/08 12:24:24;;;;;;;;;;;;;;;;;;5023570;28;20008;-64
2022/06/08 12:26:51;;;;;;;;;;;;;;;;;;5026148;28;19925;-65
2022/06/08 12:29:18;;;;;;;;;;;;;;;;;;5027233;28;19921;-67
2022/06/08 12:31:44;;;;;;;;;;;;;;;;;;5018303;28;20268;-67
2022/06/08 12:34:10;;;;;;;;;;;;;;;;;;5013371;28;19929;-66
2022/06/08 12:36:36;;;;;;;;;;;;;;;;;;5031754;28;19925;-68
2022/06/08 12:39:02;;;;;;;;;;;;;;;;;;5025818;28;19925;-67
2022/06/08 12:41:30;;;;;;;;;;;;;;;;;;5011917;28;19932;-66
2022/06/08 12:43:56;;;;;;;;;;;;;;;;;;5021638;28;19995;-68
2022/06/08 12:46:22;;;;;;;;;;;;;;;;;;5028250;28;19926;-67
2022/06/08 12:48:48;;;;;;;;;;;;;;;;;;5026411;28;19925;-68
2022/06/08 12:51:14;;;;;;;;;;;;;;;;;;5029056;28;19925;-68
2022/06/08 12:53:40;;;;;;;;;;;;;;;;;;5031238;28;19929;-67
2022/06/08 12:56:06;;;;;;;;;;;;;;;;;;5032656;28;19928;-69
2022/06/08 12:58:32;;;;;;;;;;;;;;;;;;5031812;28;20382;-70
2022/06/08 13:00:58;;;;;;;;;;;;;;;;;;5016608;28;19922;-68
2022/06/08 13:03:25;;;;;;;;;;;;;;;;;;5024717;28;19933;-70
2022/06/08 13:05:51;;;;;;;;;;;;;;;;;;5016202;28;19921;-68
2022/06/08 13:08:17;;;;;;;;;;;;;;;;;;5025947;28;19922;-69
2022/06/08 13:10:44;;;;;;;;;;;;;;;;;;5056937;28;19925;-69
2022/06/08 13:13:11;;;;;;;;;;;;;;;;;;5027857;28;19932;-68
2022/06/08 13:15:38;;;;;;;;;;;;;;;;;;5028934;28;19965;-69
2022/06/08 13:18:04;;;;;;;;;;;;;;;;;;5034694;28;19925;-71
2022/06/08 13:20:30;;;;;;;;;;;;;;;;;;5034183;28;19921;-69
2022/06/08 13:22:56;;;;;;;;;;;;;;;;;;5032961;28;19940;-71
2022/06/08 13:25:23;;;;;;;;;;;;;;;;;;5029560;28;20004;-70
2022/06/08 13:27:50;;;;;;;;;;;;;;;;;;5022757;28;19939;-70
2022/06/08 13:30:16;;;;;;;;;;;;;;;;;;5018453;28;20027;-70
2022/06/08 13:32:43;;;;;;;;;;;;;;;;;;5034717;28;19925;-71
2022/06/08 13:35:09;;;;;;;;;;;;;;;;;;5032603;28;19925;-70
2022/06/08 13:37:36;;;;;;;;;;;;;;;;;;5022325;28;19948;-68
2022/06/08 13:40:02;;;;;;;;;;;;;;;;;;5032013;28;19960;-69
2022/06/08 13:42:29;;;;;;;;;;;;;;;;;;5034179;28;19929;-70
2022/06/08 13:44:55;;;;;;;;;;;;;;;;;;5033807;28;19921;-69
2022/06/08 13:47:21;;;;;;;;;;;;;;;;;;5026716;28;19929;-70
2022/06/08 13:49:48;;;;;;;;;;;;;;;;;;5034775;28;19979;-70
2022/06/08 13:52:14;;;;;;;;;;;;;;;;;;5025290;28;20391;-68
2022/06/08 13:54:40;;;;;;;;;;;;;;;;;;5034230;28;19983;-67
2022/06/08 13:57:06;;;;;;;;;;;;;;;;;;5033841;28;19948;-67
2022/06/08 13:59:32;;;;;;;;;;;;;;;;;;5026412;28;20403;-68
2022/06/08 14:01:59;;;;;;;;;;;;;;;;;;5025464;28;21307;-67
2022/06/08 14:04:25;;;;;;;;;;;;;;;;;;5020363;28;20302;-68
2022/06/08 14:15:06;;;;;;;;;;;;;;;;;;5013352;28;20311;-68
2022/06/08 14:17:32;;;;;;;;;;;;;;;;;;5025008;28;19936;-68
2022/06/08 14:19:59;;;;;;;;;;;;;;;;;;5024759;28;19973;-70
2022/06/08 14:22:25;;;;;;;;;;;;;;;;;;5023057;28;19974;-68
2022/06/08 14:24:51;;;;;;;;;;;;;;;;;;5014512;28;19921;-68
2022/06/08 14:27:17;;;;;;;;;;;;;;;;;;5023471;28;19932;-66
2022/06/08 14:29:43;;;;;;;;;;;;;;;;;;5013805;28;19925;-68
2022/06/08 14:32:10;;;;;;;;;;;;;;;;;;5028728;28;20004;-67
2022/06/08 14:34:36;;;;;;;;;;;;;;;;;;5031044;28;19929;-69
2022/06/08 14:37:02;;;;;;;;;;;;;;;;;;5028896;28;19978;-69
2022/06/08 14:39:28;;;;;;;;;;;;;;;;;;5031153;28;19928;-67
2022/06/08 14:41:54;;;;;;;;;;;;;;;;;;5021977;28;19933;-68
2022/06/08 14:44:22;;;;;;;;;;;;;;;;;;5030857;28;19929;-67
2022/06/08 14:46:48;;;;;;;;;;;;;;;;;;5017051;28;20012;-66
2022/06/08 14:49:14;;;;;;;;;;;;;;;;;;5014403;28;20016;-70
2022/06/08 14:51:39;;;;;;;;;;;;;;;;;;5026101;28;19929;-68
2022/06/08 14:54:05;;;;;;;;;;;;;;;;;;5031342;28;19944;-68
2022/06/08 14:56:33;;;;;;;;;;;;;;;;;;5012961;28;19926;-68
2022/06/08 14:58:59;;;;;;;;;;;;;;;;;;5018722;28;20287;-66
2022/06/08 15:01:26;;;;;;;;;;;;;;;;;;5024447;28;19925;-67
2022/06/08 15:03:52;;;;;;;;;;;;;;;;;;5014506;28;19945;-67
2022/06/08 15:06:18;;;;;;;;;;;;;;;;;;5014004;28;19925;-67
2022/06/08 15:08:46;;;;;;;;;;;;;;;;;;5014829;28;19968;-67
2022/06/08 15:13:59;;;;;;;;;;;;;;;;;;5013347;28;20140;-67
2022/06/08 15:16:26;;;;;;;;;;;;;;;;;;5014347;28;20329;-67
2022/06/08 15:18:52;;;;;;;;;;;;;;;;;;5014114;28;20016;-67
2022/06/08 15:21:18;;;;;;;;;;;;;;;;;;5013645;28;20016;-67
2022/06/08 15:23:44;;;;;;;;;;;;;;;;;;5013931;28;19922;-67
2022/06/08 15:26:10;;;;;;;;;;;;;;;;;;5022535;28;20309;-67
2022/06/08 15:28:36;;;;;;;;;;;;;;;;;;5033208;28;20016;-67
2022/06/08 15:31:02;;;;;;;;;;;;;;;;;;5033240;28;19925;-67
2022/06/08 15:33:31;;;;;;;;;;;;;;;;;;5033481;28;19921;-67
2022/06/08 15:35:57;;;;;;;;;;;;;;;;;;5065037;28;20248;-67
2022/06/08 15:38:24;;;;;;;;;;;;;;;;;;5033264;28;19928;-67
2022/06/08 15:40:50;;;;;;;;;;;;;;;;;;5033279;28;20379;-67
2022/06/08 15:43:18;;;;;;;;;;;;;;;;;;5032305;28;20225;-67
2022/06/08 15:45:44;;;;;;;;;;;;;;;;;;5033743;28;19971;-67
2022/06/08 15:48:10;;;;;;;;;;;;;;;;;;5033472;28;19921;-67
2022/06/08 15:50:37;;;;;;;;;;;;;;;;;;5033355;28;19981;-67
2022/06/08 15:53:04;;;;;;;;;;;;;;;;;;5032764;28;20352;-67
2022/06/08 15:55:30;;;;;;;;;;;;;;;;;;5033354;28;20000;-67
2022/06/08 15:58:00;;;;;;;;;;;;;;;;;;5033011;28;19971;-67
2022/06/08 16:00:26;;;;;;;;;;;;;;;;;;5032673;28;19925;-67
2022/06/08 16:02:52;;;;;;;;;;;;;;;;;;5033239;28;19925;-67
2022/06/08 16:05:18;;;;;;;;;;;;;;;;;;5033546;28;19925;-67
2022/06/08 16:07:44;;;;;;;;;;;;;;;;;;5032906;28;19921;-67
2022/06/08 16:10:10;;;;;;;;;;;;;;;;;;5033577;28;19921;-67
2022/06/08 16:12:36;;;;;;;;;;;;;;;;;;5033071;28;20095;-67
2022/06/08 16:15:02;;;;;;;;;;;;;;;;;;5032821;28;20004;-67
2022/06/08 16:17:28;;;;;;;;;;;;;;;;;;5033229;28;19928;-67
2022/06/08 16:19:57;;;;;;;;;;;;;;;;;;5033391;28;19928;-67
2022/06/08 16:22:23;;;;;;;;;;;;;;;;;;5032862;28;19929;-67
2022/06/08 16:24:50;;;;;;;;;;;;;;;;;;5035749;28;19924;-67
2022/06/08 16:27:16;;;;;;;;;;;;;;;;;;5019352;28;19928;-67
2022/06/08 16:29:42;;;;;;;;;;;;;;;;;;5016819;28;20011;-67
2022/06/08 16:32:08;;;;;;;;;;;;;;;;;;5017279;28;19925;-67
2022/06/08 16:34:35;;;;;;;;;;;;;;;;;;5017184;28;19922;-67
2022/06/08 16:37:02;;;;;;;;;;;;;;;;;;5016331;28;20368;-67
2022/06/08 16:39:28;;;;;;;;;;;;;;;;;;5017074;28;20442;-67
2022/06/08 16:41:55;;;;;;;;;;;;;;;;;;5017236;28;19926;-67
2022/06/08 16:44:24;;;;;;;;;;;;;;;;;;5015984;28;19925;-67
2022/06/08 16:46:50;;;;;;;;;;;;;;;;;;5017309;28;20265;-67
2022/06/08 16:49:15;;;;;;;;;;;;;;;;;;5016677;28;19932;-67
2022/06/08 16:51:42;;;;;;;;;;;;;;;;;;5015996;28;19928;-67
2022/06/08 16:54:08;;;;;;;;;;;;;;;;;;5016669;28;19921;-67
2022/06/08 17:02:06;;;;;;;;;;;;;;;;;;5016470;28;20291;-68
2022/06/08 17:04:31;;;;;;;;;;;;;;;;;;5016847;28;20016;-67
2022/06/08 17:06:57;;;;;;;;;;;;;;;;;;5015814;28;20004;-67
2022/06/08 17:09:23;;;;;;;;;;;;;;;;;;5016438;28;19928;-67
2022/06/08 17:11:49;;;;;;;;;;;;;;;;;;5016345;28;19960;-67